Weather at Agra Airport / Agra Air Force Station

Public forecast

Using degrees Celsius for public forecast. Weather courtesy of forecast.io.

Current aviation weather report (METAR) for Agra Airport / Agra Air Force Station

Report is more than 6 hours old.

2024/07/15 05:40 (retrieved 21 hours ago)

VIAG 150540Z 07010G20KT 2000 BR-TSRA FEW010 SCT020 FEW025CB BKN090 33/28 Q1001 TEMPO 06025KT 1500

Closest aviation forecast (TAF) to Agra Airport / Agra Air Force Station

Forecast is more than 12 hours old.

Closest forecast is Gwalior Airport, 53.8 nm (99.7 km) SSE.

2024/07/15 12:00 (retrieved 15 hours ago)

TAF VIGR 150930Z 1512/1524 20005KT 5000 -RABR SCT015 FEW030CB BKN090 TEMPO 1512/1515 4000 TSRA SCT012 FEW025CB BKN090 BECMG 1520/1524 05005KT 4000 RABR SCT010 SCT020 FEW025CB BKN090